Time;durP1;ratioP1;P1;durP2;ratioP2;P2;SDS_P1;SDS_P2;PMS_P1;PMS_P2;Temp;Humidity;BMP_temperature;BMP_pressure;BME280_temperature;BME280_humidity;BME280_pressure;Samples;Min_cycle;Max_cycle;Signal;HPM_P1;HPM_P2
2022/01/07 00:01:23;;;;;;;;;;;-1.40;99.90;;;;;;5029793;28;19924;-84
2022/01/07 00:03:49;;;;;;;;;;;-1.50;99.90;;;;;;5046043;28;19940;-84
2022/01/07 00:06:14;;;;;;;;;;;-1.60;99.90;;;;;;5051192;28;19986;-82
2022/01/07 00:08:40;;;;;;;;;;;-1.70;99.90;;;;;;5052264;28;19939;-86
2022/01/07 00:11:05;;;;;;;;;;;-1.70;99.90;;;;;;5045980;28;20051;-86
2022/01/07 00:13:31;;;;;;;;;;;-1.60;99.90;;;;;;5050073;28;19956;-87
2022/01/07 00:15:57;;;;;;;;;;;-1.60;99.90;;;;;;5049234;28;19916;-86
2022/01/07 00:18:23;;;;;;;;;;;-1.60;99.90;;;;;;5050224;28;20577;-85
2022/01/07 00:20:49;;;;;;;;;;;-1.60;99.90;;;;;;5048180;28;19928;-86
2022/01/07 00:23:14;;;;;;;;;;;-1.80;99.90;;;;;;5046719;28;19970;-87
2022/01/07 00:25:40;;;;;;;;;;;-1.90;99.90;;;;;;5050983;28;19936;-85
2022/01/07 00:28:06;;;;;;;;;;;-1.90;99.90;;;;;;5044507;28;20016;-85
2022/01/07 00:30:33;;;;;;;;;;;-2.00;99.90;;;;;;5049320;28;19931;-85
2022/01/07 00:32:59;;;;;;;;;;;-2.00;99.90;;;;;;5051410;28;19920;-84
2022/01/07 00:35:24;;;;;;;;;;;-2.10;99.90;;;;;;5052121;28;20311;-87
2022/01/07 00:37:50;;;;;;;;;;;-2.10;99.90;;;;;;5046022;28;19921;-86
2022/01/07 00:40:17;;;;;;;;;;;-2.00;99.90;;;;;;5050684;28;19917;-83
2022/01/07 00:42:42;;;;;;;;;;;-2.10;99.90;;;;;;5044181;28;20015;-88
2022/01/07 00:45:08;;;;;;;;;;;-2.10;99.90;;;;;;5050587;28;19921;-85
2022/01/07 00:47:34;;;;;;;;;;;-2.00;99.90;;;;;;5045302;28;19936;-83
2022/01/07 00:50:00;;;;;;;;;;;-2.10;99.90;;;;;;5046408;28;19917;-85
2022/01/07 00:52:26;;;;;;;;;;;-2.20;99.90;;;;;;5048202;28;19974;-84
2022/01/07 00:54:52;;;;;;;;;;;-2.10;99.90;;;;;;5052046;28;20012;-85
2022/01/07 00:57:17;;;;;;;;;;;-2.00;99.90;;;;;;5050401;28;20400;-82
2022/01/07 00:59:46;;;;;;;;;;;-2.00;99.90;;;;;;5052202;28;19917;-88
2022/01/07 01:02:12;;;;;;;;;;;-1.90;99.90;;;;;;5049068;28;19979;-86
2022/01/07 01:04:37;;;;;;;;;;;-2.00;99.90;;;;;;5048985;28;19925;-84
2022/01/07 01:07:03;;;;;;;;;;;-2.00;99.90;;;;;;5048356;28;19929;-87
2022/01/07 01:09:28;;;;;;;;;;;-2.00;99.90;;;;;;5045024;28;20544;-87
2022/01/07 01:11:54;;;;;;;;;;;-1.90;99.90;;;;;;5047474;28;19931;-86
2022/01/07 01:14:20;;;;;;;;;;;-2.00;99.90;;;;;;5051742;28;20384;-86
2022/01/07 01:16:47;;;;;;;;;;;-2.10;99.90;;;;;;5049964;28;20376;-86
2022/01/07 01:19:12;;;;;;;;;;;-2.10;99.90;;;;;;5052198;28;19928;-87
2022/01/07 01:21:38;;;;;;;;;;;-2.10;99.90;;;;;;5045927;28;19962;-84
2022/01/07 01:24:04;;;;;;;;;;;-2.10;99.90;;;;;;5049871;28;20770;-85
2022/01/07 01:26:29;;;;;;;;;;;-1.90;99.90;;;;;;5050130;28;19924;-85
2022/01/07 01:28:55;;;;;;;;;;;-1.90;99.90;;;;;;5052625;28;19925;-85
2022/01/07 01:31:21;;;;;;;;;;;-1.80;99.90;;;;;;5047784;28;19929;-86
2022/01/07 01:33:47;;;;;;;;;;;-1.90;99.90;;;;;;5047997;28;20486;-87
2022/01/07 01:36:14;;;;;;;;;;;-2.00;99.90;;;;;;5048305;28;19928;-84
2022/01/07 01:38:40;;;;;;;;;;;-2.00;99.90;;;;;;5044111;28;19970;-85
2022/01/07 01:41:06;;;;;;;;;;;-2.00;99.90;;;;;;5046205;28;19925;-87
2022/01/07 01:43:32;;;;;;;;;;;-1.90;99.90;;;;;;5051065;28;19925;-86
2022/01/07 01:45:57;;;;;;;;;;;-1.90;99.90;;;;;;5048233;28;19940;-84
2022/01/07 01:48:23;;;;;;;;;;;-1.90;99.90;;;;;;5044954;28;19917;-86
2022/01/07 01:50:49;;;;;;;;;;;-2.00;99.90;;;;;;5044287;28;20502;-83
2022/01/07 01:53:15;;;;;;;;;;;-1.90;99.90;;;;;;5050947;28;20249;-88
2022/01/07 01:55:41;;;;;;;;;;;-2.00;99.90;;;;;;5048458;28;19995;-85
2022/01/07 01:58:06;;;;;;;;;;;-2.00;99.90;;;;;;5047343;28;20516;-87
2022/01/07 02:00:32;;;;;;;;;;;-2.00;99.90;;;;;;5042565;28;19924;-85
2022/01/07 02:02:58;;;;;;;;;;;-2.00;99.90;;;;;;5050832;28;19916;-86
2022/01/07 02:05:24;;;;;;;;;;;-2.00;99.90;;;;;;5049502;28;20043;-87
2022/01/07 02:07:49;;;;;;;;;;;-2.00;99.90;;;;;;5047446;28;20292;-86
2022/01/07 02:10:16;;;;;;;;;;;-1.90;99.90;;;;;;5043465;28;19960;-86
2022/01/07 02:12:42;;;;;;;;;;;-1.90;99.90;;;;;;5048798;28;20408;-85
2022/01/07 02:15:09;;;;;;;;;;;-2.00;99.90;;;;;;5051856;28;20039;-84
2022/01/07 02:17:34;;;;;;;;;;;-2.10;99.90;;;;;;5025789;28;19925;-87
2022/01/07 02:20:00;;;;;;;;;;;-2.00;99.90;;;;;;5047516;28;19931;-86
2022/01/07 02:22:26;;;;;;;;;;;-2.10;99.90;;;;;;5051432;28;19920;-87
2022/01/07 02:24:52;;;;;;;;;;;-2.10;99.90;;;;;;5048253;28;19917;-86
2022/01/07 02:27:18;;;;;;;;;;;-2.10;99.90;;;;;;5043465;28;19929;-87
2022/01/07 02:29:44;;;;;;;;;;;-2.10;99.90;;;;;;5027241;28;19920;-86
2022/01/07 02:32:10;;;;;;;;;;;-2.10;99.90;;;;;;5048651;28;19931;-88
2022/01/07 02:34:36;;;;;;;;;;;-2.10;99.90;;;;;;5050346;28;19916;-86
2022/01/07 02:37:01;;;;;;;;;;;-2.20;99.90;;;;;;5044395;28;20455;-87
2022/01/07 02:39:27;;;;;;;;;;;-2.20;99.90;;;;;;5048087;28;19955;-86
2022/01/07 02:41:52;;;;;;;;;;;-2.30;99.90;;;;;;5047793;28;19946;-84
2022/01/07 02:44:18;;;;;;;;;;;-2.20;99.90;;;;;;5046478;28;19927;-83
2022/01/07 02:46:45;;;;;;;;;;;-2.20;99.90;;;;;;5049054;28;19924;-86
2022/01/07 02:49:16;;;;;;;;;;;-2.30;99.90;;;;;;5043816;28;19934;-85
2022/01/07 02:51:42;;;;;;;;;;;-2.30;99.90;;;;;;5049013;28;19977;-85
2022/01/07 02:54:08;;;;;;;;;;;-2.30;99.90;;;;;;5044793;28;19928;-86
2022/01/07 02:56:34;;;;;;;;;;;-2.40;99.90;;;;;;5049230;28;19923;-84
2022/01/07 02:59:00;;;;;;;;;;;-2.30;99.90;;;;;;5045579;28;20309;-87
2022/01/07 03:01:26;;;;;;;;;;;-2.40;99.90;;;;;;5047358;28;20784;-86
2022/01/07 03:03:51;;;;;;;;;;;-2.40;99.90;;;;;;5047200;28;19937;-87
2022/01/07 03:06:17;;;;;;;;;;;-2.30;99.90;;;;;;5048802;28;19924;-86
2022/01/07 03:08:46;;;;;;;;;;;-2.30;99.90;;;;;;5049556;28;20047;-86
2022/01/07 03:11:12;;;;;;;;;;;-2.40;99.90;;;;;;5042798;28;19947;-86
2022/01/07 03:13:37;;;;;;;;;;;-2.40;99.90;;;;;;5047589;28;20427;-84
2022/01/07 03:16:03;;;;;;;;;;;-2.40;99.90;;;;;;5048332;28;19928;-83
2022/01/07 03:18:29;;;;;;;;;;;-2.50;99.90;;;;;;5048104;28;19925;-84
2022/01/07 03:20:54;;;;;;;;;;;-2.40;99.90;;;;;;5051522;28;19932;-84
2022/01/07 03:23:20;;;;;;;;;;;-2.50;99.90;;;;;;5049685;28;20699;-86
2022/01/07 03:25:46;;;;;;;;;;;-2.50;99.90;;;;;;5052836;28;20036;-85
2022/01/07 03:28:12;;;;;;;;;;;-2.50;99.90;;;;;;5051992;28;20027;-82
2022/01/07 03:30:38;;;;;;;;;;;-2.30;99.90;;;;;;5049776;28;20030;-85
2022/01/07 03:33:04;;;;;;;;;;;-2.40;99.90;;;;;;5051165;28;20493;-87
2022/01/07 03:35:30;;;;;;;;;;;-2.40;99.90;;;;;;5051835;28;19923;-83
2022/01/07 03:37:55;;;;;;;;;;;-2.30;99.90;;;;;;5048201;28;19924;-84
2022/01/07 03:40:21;;;;;;;;;;;-2.40;99.90;;;;;;5046482;28;20796;-86
2022/01/07 03:42:48;;;;;;;;;;;-2.40;99.90;;;;;;5047301;28;19974;-85
2022/01/07 03:45:14;;;;;;;;;;;-2.40;99.90;;;;;;5046364;28;20319;-85
2022/01/07 03:47:39;;;;;;;;;;;-2.30;99.90;;;;;;5048892;28;19932;-84
2022/01/07 03:50:10;;;;;;;;;;;-2.30;99.90;;;;;;5049524;28;19924;-86
2022/01/07 03:52:35;;;;;;;;;;;-2.30;99.90;;;;;;5051766;28;19928;-83
2022/01/07 03:55:02;;;;;;;;;;;-2.30;99.90;;;;;;5052487;28;19921;-85
2022/01/07 03:57:28;;;;;;;;;;;-2.20;99.90;;;;;;5046369;28;20044;-84
2022/01/07 03:59:53;;;;;;;;;;;-2.20;99.90;;;;;;5052830;28;20403;-87
2022/01/07 04:02:19;;;;;;;;;;;-2.30;99.90;;;;;;5051667;28;20703;-86
2022/01/07 04:04:45;;;;;;;;;;;-2.20;99.90;;;;;;5054803;28;19929;-85
2022/01/07 04:07:10;;;;;;;;;;;-2.20;99.90;;;;;;5051521;28;19938;-86
2022/01/07 04:09:36;;;;;;;;;;;-2.20;99.90;;;;;;5054913;28;19913;-84
2022/01/07 04:12:01;;;;;;;;;;;-2.20;99.90;;;;;;5052149;28;19939;-86
2022/01/07 04:14:27;;;;;;;;;;;-2.20;99.90;;;;;;5050548;28;20039;-85
2022/01/07 04:16:53;;;;;;;;;;;-2.20;99.90;;;;;;5044451;28;19921;-85
2022/01/07 04:19:18;;;;;;;;;;;-2.20;99.90;;;;;;5030186;28;20022;-86
2022/01/07 04:21:46;;;;;;;;;;;-2.20;99.90;;;;;;5051105;28;19924;-84
2022/01/07 04:24:12;;;;;;;;;;;-2.20;99.90;;;;;;5051899;28;19982;-86
2022/01/07 04:26:37;;;;;;;;;;;-2.20;99.90;;;;;;5051491;28;20983;-86
2022/01/07 04:29:03;;;;;;;;;;;-2.20;99.90;;;;;;5045026;28;20460;-87
2022/01/07 04:31:28;;;;;;;;;;;-2.20;99.90;;;;;;5048222;28;19982;-85
2022/01/07 04:33:54;;;;;;;;;;;-2.30;99.90;;;;;;5044963;28;19978;-83
2022/01/07 04:36:19;;;;;;;;;;;-2.30;99.90;;;;;;5050887;28;19945;-85
2022/01/07 04:38:46;;;;;;;;;;;-2.30;99.90;;;;;;5046188;28;20698;-84
2022/01/07 04:41:12;;;;;;;;;;;-2.30;99.90;;;;;;5050043;28;19924;-84
2022/01/07 04:43:38;;;;;;;;;;;-2.30;99.90;;;;;;5051542;28;19920;-85
2022/01/07 04:46:04;;;;;;;;;;;-2.30;99.90;;;;;;5051183;28;19931;-84
2022/01/07 04:48:30;;;;;;;;;;;-2.20;99.90;;;;;;5049068;28;20383;-87
2022/01/07 04:50:55;;;;;;;;;;;-2.20;99.90;;;;;;5050392;28;19921;-85
2022/01/07 04:53:21;;;;;;;;;;;-2.20;99.90;;;;;;5045028;28;20284;-86
2022/01/07 04:55:47;;;;;;;;;;;-2.10;99.90;;;;;;5050063;28;19942;-85
2022/01/07 04:58:13;;;;;;;;;;;-2.10;99.90;;;;;;5047312;28;20006;-83
2022/01/07 05:00:39;;;;;;;;;;;-2.00;99.90;;;;;;5042892;28;20006;-85
2022/01/07 05:03:05;;;;;;;;;;;-2.00;99.90;;;;;;5049909;28;19927;-87
2022/01/07 05:05:31;;;;;;;;;;;-2.10;99.90;;;;;;5044044;28;19925;-85
2022/01/07 05:07:57;;;;;;;;;;;-2.00;99.90;;;;;;5044461;28;19920;-83
2022/01/07 05:10:22;;;;;;;;;;;-1.90;99.90;;;;;;5051167;28;19956;-88
2022/01/07 05:12:48;;;;;;;;;;;-1.90;99.90;;;;;;5051576;28;19921;-85
2022/01/07 05:15:14;;;;;;;;;;;-1.90;99.90;;;;;;5048514;28;19927;-86
2022/01/07 05:17:41;;;;;;;;;;;-1.80;99.90;;;;;;5043519;28;19921;-85
2022/01/07 05:20:07;;;;;;;;;;;-1.70;99.90;;;;;;5048333;28;20414;-83
2022/01/07 05:22:32;;;;;;;;;;;-1.80;99.90;;;;;;5048775;28;20000;-84
2022/01/07 05:24:58;;;;;;;;;;;-1.90;99.90;;;;;;5049701;28;19924;-84
2022/01/07 05:27:23;;;;;;;;;;;-1.90;99.90;;;;;;5051052;28;19935;-83
2022/01/07 05:29:49;;;;;;;;;;;-1.80;99.90;;;;;;5046889;28;19920;-84
2022/01/07 05:32:14;;;;;;;;;;;-1.80;99.90;;;;;;5051622;28;19929;-85
2022/01/07 05:34:40;;;;;;;;;;;-1.80;99.90;;;;;;5051641;28;19960;-82
2022/01/07 05:37:07;;;;;;;;;;;-1.70;99.90;;;;;;5047312;28;20615;-86
2022/01/07 05:39:32;;;;;;;;;;;-1.70;99.90;;;;;;5044791;28;19924;-85
2022/01/07 05:41:59;;;;;;;;;;;-1.70;99.90;;;;;;5042671;28;19963;-84
2022/01/07 05:44:25;;;;;;;;;;;-1.60;99.90;;;;;;5043831;28;19955;-86
2022/01/07 05:46:51;;;;;;;;;;;-1.60;99.90;;;;;;5049290;28;19925;-83
2022/01/07 05:49:16;;;;;;;;;;;-1.60;99.90;;;;;;5044109;28;19948;-83
2022/01/07 05:51:42;;;;;;;;;;;-1.60;99.90;;;;;;5045744;28;19946;-86
2022/01/07 05:54:08;;;;;;;;;;;-1.60;99.90;;;;;;5043897;28;19921;-84
2022/01/07 05:56:34;;;;;;;;;;;-1.60;99.90;;;;;;5044147;28;19917;-86
2022/01/07 05:59:00;;;;;;;;;;;-1.50;99.90;;;;;;5047851;28;19971;-85
2022/01/07 06:01:25;;;;;;;;;;;-1.50;99.90;;;;;;5066717;28;19925;-85
2022/01/07 06:03:51;;;;;;;;;;;-1.50;99.90;;;;;;5072154;28;19928;-82
2022/01/07 06:06:16;;;;;;;;;;;-1.50;99.90;;;;;;5071996;28;19940;-85
2022/01/07 06:08:42;;;;;;;;;;;-1.40;99.90;;;;;;5051895;28;19920;-83
2022/01/07 06:11:07;;;;;;;;;;;-1.40;99.90;;;;;;5060500;28;19920;-84
2022/01/07 06:13:33;;;;;;;;;;;-1.40;99.90;;;;;;5047700;28;19927;-84
2022/01/07 06:15:58;;;;;;;;;;;-1.40;99.90;;;;;;5048020;28;19975;-84
2022/01/07 06:18:24;;;;;;;;;;;-1.40;99.90;;;;;;5047728;28;20458;-84
2022/01/07 06:20:50;;;;;;;;;;;-1.40;99.90;;;;;;5028648;28;20315;-84
2022/01/07 06:23:16;;;;;;;;;;;-1.40;99.90;;;;;;5049577;28;19923;-84
2022/01/07 06:25:44;;;;;;;;;;;-1.40;99.90;;;;;;5050033;28;19924;-85
2022/01/07 06:28:10;;;;;;;;;;;-1.40;99.90;;;;;;5050156;28;19920;-84
2022/01/07 06:30:35;;;;;;;;;;;-1.30;99.90;;;;;;5043578;28;20042;-87
2022/01/07 06:33:01;;;;;;;;;;;-1.30;99.90;;;;;;5051442;28;19940;-85
2022/01/07 06:35:26;;;;;;;;;;;-1.30;99.90;;;;;;5044594;28;20253;-84
2022/01/07 06:37:52;;;;;;;;;;;-1.40;99.90;;;;;;5049068;28;19920;-84
2022/01/07 06:40:17;;;;;;;;;;;-1.40;99.90;;;;;;5043000;28;19952;-85
2022/01/07 06:42:43;;;;;;;;;;;-1.40;99.90;;;;;;5049175;28;20058;-85
2022/01/07 06:45:09;;;;;;;;;;;-1.40;99.90;;;;;;5050348;28;20580;-84
2022/01/07 06:47:35;;;;;;;;;;;-1.30;99.90;;;;;;5046592;28;20742;-82
2022/01/07 06:50:01;;;;;;;;;;;-1.30;99.90;;;;;;5048806;28;20435;-85
2022/01/07 06:52:26;;;;;;;;;;;-1.30;99.90;;;;;;5045222;28;20414;-83
2022/01/07 06:54:52;;;;;;;;;;;-1.30;99.90;;;;;;5051393;28;20023;-86
2022/01/07 06:57:18;;;;;;;;;;;-1.30;99.90;;;;;;5047270;28;19928;-84
2022/01/07 06:59:45;;;;;;;;;;;-1.30;99.90;;;;;;5047357;28;20038;-83
2022/01/07 07:02:10;;;;;;;;;;;-1.30;99.90;;;;;;5052837;28;19928;-86
2022/01/07 07:04:36;;;;;;;;;;;-1.30;99.90;;;;;;5052460;28;19924;-85
2022/01/07 07:07:02;;;;;;;;;;;-1.30;99.90;;;;;;5046896;28;19929;-86
2022/01/07 07:09:27;;;;;;;;;;;-1.30;99.90;;;;;;5053286;28;19917;-85
2022/01/07 07:11:53;;;;;;;;;;;-1.30;99.90;;;;;;5050619;28;19921;-85
2022/01/07 07:14:18;;;;;;;;;;;-1.30;99.90;;;;;;5048505;28;19932;-84
2022/01/07 07:16:44;;;;;;;;;;;-1.30;99.90;;;;;;5049390;28;19952;-85
2022/01/07 07:19:10;;;;;;;;;;;-1.30;99.90;;;;;;5049795;28;20409;-85
2022/01/07 07:21:36;;;;;;;;;;;-1.20;99.90;;;;;;5050725;28;19917;-87
2022/01/07 07:24:02;;;;;;;;;;;-1.30;99.90;;;;;;5047172;28;20829;-86
2022/01/07 07:26:28;;;;;;;;;;;-1.30;99.90;;;;;;5051914;28;19924;-86
2022/01/07 07:28:53;;;;;;;;;;;-1.30;99.90;;;;;;5051670;28;19981;-85
2022/01/07 07:31:20;;;;;;;;;;;-1.30;99.90;;;;;;5048738;28;19924;-84
2022/01/07 07:36:27;;;;;;;;;;;-1.20;99.90;;;;;;5050416;28;19921;-83
2022/01/07 07:38:57;;;;;;;;;;;-1.20;99.90;;;;;;5050805;28;21310;-84
2022/01/07 07:41:23;;;;;;;;;;;-1.30;99.90;;;;;;5049872;28;19924;-85
2022/01/07 07:43:50;;;;;;;;;;;-1.20;99.90;;;;;;5046042;28;19920;-85
2022/01/07 07:46:19;;;;;;;;;;;-1.20;99.90;;;;;;5051783;28;19932;-84
2022/01/07 07:48:46;;;;;;;;;;;-1.20;99.90;;;;;;5047434;28;19997;-83
2022/01/07 07:51:11;;;;;;;;;;;-1.20;99.90;;;;;;5051794;28;19920;-84
2022/01/07 07:53:37;;;;;;;;;;;-1.20;99.90;;;;;;5046370;28;19932;-85
2022/01/07 07:56:03;;;;;;;;;;;-1.20;99.90;;;;;;5047017;28;19989;-86
2022/01/07 07:58:29;;;;;;;;;;;-1.20;99.90;;;;;;5044137;28;19925;-83
2022/01/07 08:00:54;;;;;;;;;;;-1.30;99.90;;;;;;5047259;28;19925;-83
2022/01/07 08:03:21;;;;;;;;;;;-1.20;99.90;;;;;;5045544;28;20040;-84
2022/01/07 08:05:46;;;;;;;;;;;-1.20;99.90;;;;;;5050505;28;19987;-85
2022/01/07 08:08:12;;;;;;;;;;;-1.10;99.90;;;;;;5053993;28;19924;-87
2022/01/07 08:10:45;;;;;;;;;;;-1.10;99.90;;;;;;5049829;28;19927;-85
2022/01/07 08:18:23;;;;;;;;;;;-1.10;99.90;;;;;;5052144;28;19932;-87
2022/01/07 08:20:52;;;;;;;;;;;-1.10;99.90;;;;;;5052059;28;19920;-90
2022/01/07 08:23:19;;;;;;;;;;;-1.20;99.90;;;;;;5052205;28;19916;-85
2022/01/07 08:25:45;;;;;;;;;;;-1.10;99.90;;;;;;5052775;28;19933;-87
2022/01/07 08:28:12;;;;;;;;;;;-1.00;99.90;;;;;;5048941;28;19990;-85
2022/01/07 08:30:59;;;;;;;;;;;-1.00;99.90;;;;;;5050040;28;19994;-86
2022/01/07 08:36:08;;;;;;;;;;;-1.10;99.90;;;;;;5049891;28;20299;-86
2022/01/07 08:38:34;;;;;;;;;;;-1.00;99.90;;;;;;5049424;28;19916;-85
2022/01/07 08:40:59;;;;;;;;;;;-1.00;99.90;;;;;;5045850;28;19924;-86
2022/01/07 08:43:25;;;;;;;;;;;-1.10;99.90;;;;;;5045170;28;19920;-87
2022/01/07 08:45:50;;;;;;;;;;;-1.00;99.90;;;;;;5028955;28;19928;-86
2022/01/07 08:48:16;;;;;;;;;;;-0.90;99.90;;;;;;5047679;28;20373;-86
2022/01/07 08:50:44;;;;;;;;;;;-0.80;99.90;;;;;;5046720;28;20470;-90
2022/01/07 08:53:09;;;;;;;;;;;-0.70;99.90;;;;;;5053786;28;20383;-89
2022/01/07 08:55:35;;;;;;;;;;;-0.70;99.90;;;;;;5049366;28;20321;-86
2022/01/07 08:58:00;;;;;;;;;;;-0.50;99.90;;;;;;5046089;28;19919;-85
2022/01/07 09:00:26;;;;;;;;;;;-0.70;99.90;;;;;;5047779;28;19932;-87
2022/01/07 09:02:51;;;;;;;;;;;-0.60;99.90;;;;;;5051430;28;19941;-87
2022/01/07 09:05:17;;;;;;;;;;;-0.50;99.90;;;;;;5047076;28;19963;-85
2022/01/07 09:07:43;;;;;;;;;;;-0.50;99.90;;;;;;5042043;28;19924;-88
2022/01/07 09:10:08;;;;;;;;;;;-0.40;99.90;;;;;;5050182;28;20264;-87
2022/01/07 09:12:34;;;;;;;;;;;-0.40;99.90;;;;;;5053226;28;20274;-89
2022/01/07 09:14:59;;;;;;;;;;;-0.20;99.90;;;;;;5049573;28;19921;-86
2022/01/07 09:17:26;;;;;;;;;;;-0.30;99.90;;;;;;5026284;28;19996;-86
2022/01/07 09:19:52;;;;;;;;;;;-0.30;99.90;;;;;;5048080;28;20252;-88
2022/01/07 09:22:18;;;;;;;;;;;-0.40;99.90;;;;;;5057503;23;19930;-87
2022/01/07 09:24:43;;;;;;;;;;;-0.30;99.90;;;;;;5014463;28;19988;-87
2022/01/07 09:27:09;;;;;;;;;;;-0.20;99.90;;;;;;5010023;28;19913;-87
2022/01/07 09:29:34;;;;;;;;;;;-0.20;99.90;;;;;;4997581;28;19949;-88
2022/01/07 09:32:00;;;;;;;;;;;-0.10;99.90;;;;;;5028432;28;19963;-87
2022/01/07 09:34:26;;;;;;;;;;;-0.20;99.90;;;;;;5017488;28;20015;-87
2022/01/07 09:36:51;;;;;;;;;;;-0.20;99.90;;;;;;5017400;28;20327;-87
2022/01/07 09:39:17;;;;;;;;;;;-0.20;99.90;;;;;;5017999;28;19919;-87
2022/01/07 09:41:43;;;;;;;;;;;-0.10;99.90;;;;;;5017852;28;20012;-87
2022/01/07 09:44:11;;;;;;;;;;;-0.20;99.90;;;;;;5036267;28;19932;-86
2022/01/07 09:46:37;;;;;;;;;;;-0.30;99.90;;;;;;5038034;28;19913;-88
2022/01/07 09:49:04;;;;;;;;;;;-0.30;99.90;;;;;;5037850;28;19995;-87
2022/01/07 09:51:30;;;;;;;;;;;-0.30;99.90;;;;;;5038673;28;19970;-88
2022/01/07 09:53:56;;;;;;;;;;;-0.30;99.90;;;;;;5037364;28;19952;-88
2022/01/07 09:56:21;;;;;;;;;;;-0.40;99.90;;;;;;5034890;28;19909;-87
2022/01/07 09:58:47;;;;;;;;;;;-0.50;99.90;;;;;;5033834;28;19917;-87
2022/01/07 10:01:19;;;;;;;;;;;-0.50;99.90;;;;;;5017158;28;20249;-87
2022/01/07 10:03:45;;;;;;;;;;;-0.50;99.90;;;;;;5036810;28;19963;-88
2022/01/07 10:06:24;;;;;;;;;;;-0.60;99.90;;;;;;5030522;28;19913;-87
2022/01/07 10:09:00;;;;;;;;;;;-0.40;99.90;;;;;;5025627;28;19935;-87
2022/01/07 10:11:26;;;;;;;;;;;-0.50;99.90;;;;;;5039869;28;19916;-87
2022/01/07 10:14:11;;;;;;;;;;;-0.60;99.90;;;;;;5036971;28;19909;-87
2022/01/07 10:17:10;;;;;;;;;;;-0.50;99.90;;;;;;5034279;28;19917;-87
2022/01/07 10:19:36;;;;;;;;;;;-0.40;99.90;;;;;;5013239;28;19956;-88
2022/01/07 10:22:04;;;;;;;;;;;-0.30;99.90;;;;;;5017897;28;20296;-87
2022/01/07 10:24:30;;;;;;;;;;;-0.30;99.90;;;;;;5016098;28;19917;-87
2022/01/07 10:27:14;;;;;;;;;;;-0.30;99.90;;;;;;5023259;28;20291;-87
2022/01/07 10:29:41;;;;;;;;;;;-0.30;99.90;;;;;;5033692;28;20276;-87
2022/01/07 10:32:27;;;;;;;;;;;-0.30;99.90;;;;;;5017360;28;19947;-87
2022/01/07 10:35:02;;;;;;;;;;;-0.30;99.90;;;;;;5049878;28;19917;-88
2022/01/07 10:37:27;;;;;;;;;;;-0.30;99.90;;;;;;5029684;28;19960;-86
2022/01/07 10:39:53;;;;;;;;;;;-0.30;99.90;;;;;;5017171;28;19921;-86
2022/01/07 10:42:25;;;;;;;;;;;-0.20;99.90;;;;;;5034237;28;19919;-87
2022/01/07 10:44:59;;;;;;;;;;;-0.20;99.90;;;;;;5033104;28;20008;-88
2022/01/07 10:47:25;;;;;;;;;;;0.00;99.90;;;;;;5036446;28;19943;-87
2022/01/07 10:49:50;;;;;;;;;;;0.10;99.90;;;;;;5032568;28;20356;-88
2022/01/07 10:52:25;;;;;;;;;;;0.20;99.90;;;;;;5026769;28;19918;-90
2022/01/07 10:55:10;;;;;;;;;;;0.30;99.90;;;;;;5032568;28;19910;-86
2022/01/07 10:57:37;;;;;;;;;;;0.10;99.90;;;;;;5013143;28;19909;-89
2022/01/07 11:00:07;;;;;;;;;;;0.00;99.90;;;;;;5038624;28;20269;-87
2022/01/07 11:02:33;;;;;;;;;;;0.10;99.90;;;;;;5032251;28;20422;-88
2022/01/07 11:04:59;;;;;;;;;;;0.00;99.90;;;;;;5033071;28;19917;-87
2022/01/07 11:07:25;;;;;;;;;;;0.10;99.90;;;;;;5034817;28;20285;-86
2022/01/07 11:09:51;;;;;;;;;;;0.10;99.90;;;;;;5040751;28;19932;-87
2022/01/07 11:12:17;;;;;;;;;;;0.20;99.90;;;;;;5042719;28;19920;-86
2022/01/07 11:14:42;;;;;;;;;;;0.20;99.90;;;;;;5024615;28;20288;-87
2022/01/07 11:17:11;;;;;;;;;;;0.10;99.90;;;;;;5033778;28;19913;-87
2022/01/07 11:19:38;;;;;;;;;;;0.20;99.90;;;;;;5032891;28;19914;-91
2022/01/07 11:22:04;;;;;;;;;;;0.20;99.90;;;;;;5032718;28;19917;-88
2022/01/07 11:24:50;;;;;;;;;;;0.40;99.90;;;;;;5032931;28;19920;-88
2022/01/07 11:27:25;;;;;;;;;;;0.50;99.90;;;;;;5033853;28;19913;-87
2022/01/07 11:30:04;;;;;;;;;;;0.50;99.90;;;;;;5032543;28;20276;-89
2022/01/07 11:32:41;;;;;;;;;;;0.40;99.90;;;;;;5032196;28;19917;-88
2022/01/07 11:35:16;;;;;;;;;;;0.50;99.90;;;;;;5032436;28;19909;-87
2022/01/07 11:37:43;;;;;;;;;;;0.30;99.90;;;;;;5025964;28;20004;-86
2022/01/07 11:40:08;;;;;;;;;;;0.30;99.90;;;;;;5012832;28;19909;-87
2022/01/07 11:42:38;;;;;;;;;;;0.40;99.90;;;;;;5015841;28;20288;-87
2022/01/07 11:45:23;;;;;;;;;;;0.40;99.90;;;;;;5025332;28;19923;-89
2022/01/07 11:47:49;;;;;;;;;;;0.20;99.90;;;;;;5016404;28;19924;-87
2022/01/07 11:50:14;;;;;;;;;;;0.30;99.90;;;;;;5016437;28;19913;-89
2022/01/07 11:52:40;;;;;;;;;;;0.30;99.90;;;;;;5033544;28;19963;-88
2022/01/07 11:55:24;;;;;;;;;;;0.30;99.90;;;;;;5046018;28;19924;-88
2022/01/07 11:57:51;;;;;;;;;;;0.20;99.90;;;;;;5036213;28;20008;-89
2022/01/07 12:00:36;;;;;;;;;;;0.20;99.90;;;;;;5035612;28;19916;-87
2022/01/07 12:03:02;;;;;;;;;;;0.30;99.90;;;;;;5036413;28;20363;-88
2022/01/07 12:05:31;;;;;;;;;;;0.30;99.90;;;;;;5035767;28;19914;-87
2022/01/07 12:07:57;;;;;;;;;;;0.20;99.90;;;;;;5035710;28;19909;-87
2022/01/07 12:10:22;;;;;;;;;;;0.20;99.90;;;;;;5051912;28;20387;-87
2022/01/07 12:12:50;;;;;;;;;;;0.20;99.90;;;;;;5036420;28;20059;-87
2022/01/07 12:15:16;;;;;;;;;;;0.10;99.90;;;;;;5035420;28;19979;-88
2022/01/07 12:17:41;;;;;;;;;;;0.00;99.90;;;;;;5034663;28;19914;-86
2022/01/07 12:20:40;;;;;;;;;;;0.00;99.90;;;;;;5013681;28;19926;-87
2022/01/07 12:23:05;;;;;;;;;;;0.10;99.90;;;;;;4984139;28;19944;-87
2022/01/07 12:25:31;;;;;;;;;;;0.00;99.90;;;;;;5031979;28;20372;-88
2022/01/07 12:28:01;;;;;;;;;;;0.10;99.90;;;;;;5007421;28;19914;-87
2022/01/07 12:30:27;;;;;;;;;;;0.00;99.90;;;;;;5034157;28;19909;-86
2022/01/07 12:32:58;;;;;;;;;;;0.00;99.90;;;;;;5034607;28;20381;-89
2022/01/07 12:35:28;;;;;;;;;;;-0.10;99.90;;;;;;5021369;28;19928;-87
2022/01/07 12:37:54;;;;;;;;;;;-0.10;99.90;;;;;;5034572;28;19975;-88
2022/01/07 12:40:19;;;;;;;;;;;-0.20;99.90;;;;;;5034236;28;20323;-87
2022/01/07 12:42:45;;;;;;;;;;;0.00;99.90;;;;;;5034666;28;19909;-89
2022/01/07 12:45:20;;;;;;;;;;;0.10;99.90;;;;;;5034748;28;19917;-89
2022/01/07 12:47:46;;;;;;;;;;;0.10;99.90;;;;;;5051305;28;20265;-87
2022/01/07 12:50:12;;;;;;;;;;;0.20;99.90;;;;;;5034539;28;19916;-87
2022/01/07 12:52:41;;;;;;;;;;;0.10;99.90;;;;;;5034272;28;19909;-88
2022/01/07 12:55:24;;;;;;;;;;;0.00;99.90;;;;;;5037298;28;19909;-87
2022/01/07 12:57:51;;;;;;;;;;;0.10;99.90;;;;;;5026195;28;19920;-90
2022/01/07 13:00:25;;;;;;;;;;;0.00;99.90;;;;;;5044266;28;19924;-88
2022/01/07 13:03:02;;;;;;;;;;;0.10;99.90;;;;;;5043383;28;19916;-88
2022/01/07 13:05:28;;;;;;;;;;;0.10;99.90;;;;;;5039649;28;19959;-87
2022/01/07 13:07:54;;;;;;;;;;;0.30;99.90;;;;;;5019288;28;19957;-89
2022/01/07 13:10:22;;;;;;;;;;;0.20;99.90;;;;;;5035695;28;19909;-87
2022/01/07 13:12:51;;;;;;;;;;;0.20;99.90;;;;;;5034999;28;19944;-86
2022/01/07 13:15:17;;;;;;;;;;;0.20;99.90;;;;;;5035413;28;19909;-87
2022/01/07 13:17:43;;;;;;;;;;;0.20;99.90;;;;;;5018468;28;19920;-87
2022/01/07 13:20:09;;;;;;;;;;;0.10;99.90;;;;;;5034882;28;20058;-87
2022/01/07 13:22:35;;;;;;;;;;;0.20;99.90;;;;;;5018093;28;19929;-89
2022/01/07 13:25:02;;;;;;;;;;;0.10;99.90;;;;;;5037499;28;20039;-88
2022/01/07 13:27:28;;;;;;;;;;;0.10;99.90;;;;;;5021509;28;19921;-87
2022/01/07 13:29:55;;;;;;;;;;;0.10;99.90;;;;;;5037137;28;20285;-87
2022/01/07 13:32:26;;;;;;;;;;;0.20;99.90;;;;;;5034818;28;19913;-89
2022/01/07 13:34:52;;;;;;;;;;;0.20;99.90;;;;;;5034942;28;20416;-86
2022/01/07 13:37:19;;;;;;;;;;;0.20;99.90;;;;;;5014102;28;19914;-86
2022/01/07 13:39:49;;;;;;;;;;;0.40;99.90;;;;;;5033352;28;20361;-87
2022/01/07 13:42:25;;;;;;;;;;;0.40;99.90;;;;;;5035359;28;19913;-87
2022/01/07 13:44:56;;;;;;;;;;;0.30;99.90;;;;;;5035700;28;19917;-87
2022/01/07 13:47:23;;;;;;;;;;;0.30;99.90;;;;;;5034422;28;20332;-88
2022/01/07 13:49:49;;;;;;;;;;;0.10;99.90;;;;;;5033650;28;19921;-87
2022/01/07 13:52:25;;;;;;;;;;;0.10;99.90;;;;;;5033562;28;20391;-86
2022/01/07 13:54:51;;;;;;;;;;;0.10;99.90;;;;;;5049887;28;19914;-88
2022/01/07 13:57:17;;;;;;;;;;;0.10;99.90;;;;;;5039197;28;19915;-88
2022/01/07 13:59:50;;;;;;;;;;;0.10;99.90;;;;;;5033416;28;19994;-87
2022/01/07 14:02:16;;;;;;;;;;;0.20;99.90;;;;;;5032948;28;19963;-87
2022/01/07 14:04:52;;;;;;;;;;;0.30;99.90;;;;;;5032526;28;19913;-87
2022/01/07 14:07:28;;;;;;;;;;;0.30;99.90;;;;;;5033115;28;19936;-86
2022/01/07 14:10:03;;;;;;;;;;;0.30;99.90;;;;;;5033424;28;19928;-88
2022/01/07 14:12:29;;;;;;;;;;;0.30;99.90;;;;;;5030222;28;20347;-87
2022/01/07 14:15:02;;;;;;;;;;;0.30;99.90;;;;;;5028497;28;19964;-89
2022/01/07 14:17:27;;;;;;;;;;;0.20;99.90;;;;;;5027902;28;19909;-88
2022/01/07 14:19:58;;;;;;;;;;;0.30;99.90;;;;;;5032578;28;19917;-88
2022/01/07 14:22:24;;;;;;;;;;;0.30;99.90;;;;;;5032880;28;20012;-87
2022/01/07 14:24:50;;;;;;;;;;;0.20;99.90;;;;;;5032988;28;19913;-89
2022/01/07 14:27:25;;;;;;;;;;;0.10;99.90;;;;;;5015969;28;19921;-86
2022/01/07 14:29:51;;;;;;;;;;;0.20;99.90;;;;;;5031975;28;19966;-87
2022/01/07 14:32:18;;;;;;;;;;;0.10;99.90;;;;;;5015512;28;20386;-88